Ευχαριστούμε που συμβάλλετε στη διατήρηση της σελίδας μας.

Thank you for your donations, it really helps to maintain the page.


Στατιστικά Καιρού & Άλλα..









Δείκτης Πυρκαγιάς (FWI)

Καστελόκαμπος Ρίον more information Kastelokampos Rion


Κάμερα Ρομανού more information Romanos Cam


προειδοποίηση για Καταιγίδες more information blitzortung!


Ραντάρ Βροχής more information rain snow radar


Επισκεφθείτε άλλες ιστοσελίδες καιρού μας:

Meteopatras.Eu in
Euweather NetworkMeteopatras.Eu in Euweather Network

Weather CloudWeather Cloud

PWS WeatherPWS Weather

Awekas NetWeather data from station Patra-Ketx

WunderGroundWeather data from station Patra-Ketx



Καταιγίδες Από : 25-06-2019 11:00 Μέχρι : 20:00 προειδοποίηση για : Καταιγίδες Επίπεδο : Κίτρινο info button

Ιδιοκτησία και Επίβλεψη : Μουλάς Αντρέας

 Πάτρα, Ελλάδα - Γ.Πλάτος : 38°14'21" Β - Γ.Μήκος : 21°45'5" Α - Υψόμετρο : 56μ

Κοντινές Αναφορές METAR

   
LGRX - Araxos
Ενημερώθηκε: 25-06-2019 16:20
Κυρίως Αίθριος  
Κυρίως Αίθριος  
   Άνεμος: ΒΒΑ 29.6 km/h
Άνεμος: ΒΒΑ 29.6 km/h
Θερμοκρασία: 34°C
Σημείο Δρόσου: 14°C
Υγρασία: 30%
Βαρόμετρο: 1012 hPa
Σύννεφα: Κυρίως Αίθριος
Ορατότητα: More than 10 km
Λεπτομέρειες Σύννεφου: Κυρίως Αίθριος 2500 ft
LGRX 251320Z 03016KT 9999 FEW025 34/14 Q1012
LGAD - Andravida
Ενημερώθηκε: 25-06-2019 16:20
Μερικώς Νεφελώδης  
Μερικώς Νεφελώδης  
   Άνεμος: ΝΑ 9.3 km/h
Άνεμος: ΝΑ 9.3 km/h
Θερμοκρασία: 31°C
Δείκτης θερμότητας: 31°C
Σημείο Δρόσου: 17°C
Υγρασία: 43%
Βαρόμετρο: 1012 hPa
Σύννεφα: Μερικώς Νεφελώδης
Ορατότητα: More than 10 km
Λεπτομέρειες Σύννεφου: Κυρίως Αίθριος 2500 ft,
Μερικώς Νεφελώδης 7000 ft
LGAD 251320Z 13005KT 9999 FEW025 SCT070 31/17 Q1012
LGZA - Zakinthos
Ενημερώθηκε: 25-06-2019 16:20
Μερικώς Νεφελώδης  
Μερικώς Νεφελώδης  
   Άνεμος: ΒΒΑ 18.5 km/h
Άνεμος: ΒΒΑ 18.5 km/h
Θερμοκρασία: 32°C
Δείκτης θερμότητας: 34°C
Σημείο Δρόσου: 20°C
Υγρασία: 49%
Βαρόμετρο: 1012 hPa
Σύννεφα: Μερικώς Νεφελώδης
Ορατότητα: More than 10 km
Λεπτομέρειες Σύννεφου: Μερικώς Νεφελώδης 1800 ft
LGZA 251320Z 02010KT 9999 SCT018 32/20 Q1012
LGKF - Kefallinia
Ενημερώθηκε: 25-06-2019 15:50
Κυρίως Αίθριος  
Κυρίως Αίθριος  
   Άνεμος: Δύση 9.3 km/h
Άνεμος: Δύση 9.3 km/h
Θερμοκρασία: 31°C
Δείκτης θερμότητας: 33°C
Σημείο Δρόσου: 20°C
Υγρασία: 52%
Βαρόμετρο: 1012 hPa
Σύννεφα: Κυρίως Αίθριος
Ορατότητα: More than 10 km
Λεπτομέρειες Σύννεφου: Κυρίως Αίθριος 7000 ft
LGKF 251250Z 26005KT 9999 FEW070 31/20 Q1012
LGPZ - Preveza
Ενημερώθηκε: 25-06-2019 16:20
Κυρίως Αίθριος  
Κυρίως Αίθριος  
   Άνεμος: ΑΒΑ 27.8 km/h
Άνεμος: ΑΒΑ 27.8 km/h
Θερμοκρασία: 34°C
Σημείο Δρόσου: 14°C
Υγρασία: 30%
Βαρόμετρο: 1014 hPa
Σύννεφα: Κυρίως Αίθριος
Ορατότητα: More than 10 km
Λεπτομέρειες Σύννεφου: Κυρίως Αίθριος 3000 ft
LGPZ 251320Z 06015KT 9999 FEW030 34/14 Q1014
LGKL - Kalamata
Ενημερώθηκε: 25-06-2019 16:20
Μερικώς Νεφελώδης  
Μερικώς Νεφελώδης  
   Άνεμος: ΝΑ 9.3 km/h
Άνεμος: ΝΑ 9.3 km/h
Θερμοκρασία: 30°C
Δείκτης θερμότητας: 31°C
Σημείο Δρόσου: 17°C
Υγρασία: 46%
Βαρόμετρο: 1012 hPa
Σύννεφα: Μερικώς Νεφελώδης
Ορατότητα: More than 10 km
Λεπτομέρειες Σύννεφου: Κυρίως Αίθριος 2000 ft,
Μερικώς Νεφελώδης 3000 ft
LGKL 251320Z 13005KT 9999 FEW020TCU SCT030 30/17 Q1012
LGKR - Kerkyra
Ενημερώθηκε: 25-06-2019 16:20
Κυρίως Αίθριος  
Κυρίως Αίθριος  
   Άνεμος: ΑΒΑ 5.6 km/h
Άνεμος: ΑΒΑ 5.6 km/h
Θερμοκρασία: 34°C
Δείκτης θερμότητας: 37°C
Σημείο Δρόσου: 21°C
Υγρασία: 47%
Βαρόμετρο: 1013 hPa
Σύννεφα: Κυρίως Αίθριος
Ορατότητα: More than 10 km
Λεπτομέρειες Σύννεφου: Κυρίως Αίθριος 3000 ft
LGKR 251320Z 07003KT 9999 FEW030 34/21 Q1013 NOSIG
LGIO - Iwannina
Ενημερώθηκε: 25-06-2019 14:50
ΜΗ τρέχουσες
Κυρίως Αίθριος  
Κυρίως Αίθριος  
   Άνεμος: ποικίλλει Άπνοια
Άνεμος: ποικίλλει Άπνοια
Θερμοκρασία: 29°C
Δείκτης θερμότητας: 28°C
Σημείο Δρόσου: 14°C
Υγρασία: 40%
Βαρόμετρο: 1017 hPa
Σύννεφα: Κυρίως Αίθριος
Ορατότητα: More than 10 km
Λεπτομέρειες Σύννεφου: Κυρίως Αίθριος 3500 ft
LGIO 251150Z /////KT 9999 FEW035 29/14 Q1017
LGPZ - Leykada
Ενημερώθηκε: 25-06-2019 16:20
Κυρίως Αίθριος  
Κυρίως Αίθριος  
   Άνεμος: ΑΒΑ 27.8 km/h
Άνεμος: ΑΒΑ 27.8 km/h
Θερμοκρασία: 34°C
Σημείο Δρόσου: 14°C
Υγρασία: 30%
Βαρόμετρο: 1014 hPa
Σύννεφα: Κυρίως Αίθριος
Ορατότητα: More than 10 km
Λεπτομέρειες Σύννεφου: Κυρίως Αίθριος 3000 ft
LGPZ 251320Z 06015KT 9999 FEW030 34/14 Q1014
LGEL - Elefsina
Ενημερώθηκε: 25-06-2019 16:20
Κυρίως Αίθριος  
Κυρίως Αίθριος  
   Άνεμος: Βοράς 33.3 km/h<br />Gust to 33.3 km/h
Άνεμος: Βοράς 33.3 km/h
Gust to 33.3 km/h
Θερμοκρασία: 33°C
Σημείο Δρόσου: 15°C
Υγρασία: 34%
Βαρόμετρο: 1012 hPa
Σύννεφα: Κυρίως Αίθριος
Ορατότητα: More than 10 km
Λεπτομέρειες Σύννεφου: Κυρίως Αίθριος 2500 ft
LGEL 251320Z 36018G29KT 9999 FEW025 33/15 Q1012
LGKC - Kythira
Ενημερώθηκε: 25-06-2019 15:50
Κυρίως Αίθριος  
Κυρίως Αίθριος  
   Άνεμος: ΒΑ 24.1 km/h
Άνεμος: ΒΑ 24.1 km/h
Θερμοκρασία: 28°C
Δείκτης θερμότητας: 30°C
Σημείο Δρόσου: 21°C
Υγρασία: 66%
Βαρόμετρο: 1014 hPa
Σύννεφα: Κυρίως Αίθριος
Ορατότητα: More than 10 km
Λεπτομέρειες Σύννεφου: Κυρίως Αίθριος 2000 ft
LGKC 251250Z 05013KT 9999 FEW020 28/21 Q1014
LGIR - Hraklio
Ενημερώθηκε: 25-06-2019 16:20
Κυρίως Αίθριος  
Κυρίως Αίθριος  
   Άνεμος: ΒΔ 27.8 km/h
Άνεμος: ΒΔ 27.8 km/h
Θερμοκρασία: 29°C
Δείκτης θερμότητας: 32°C
Σημείο Δρόσου: 22°C
Υγρασία: 66%
Βαρόμετρο: 1010 hPa
Σύννεφα: Κυρίως Αίθριος
Ορατότητα: More than 10 km
Λεπτομέρειες Σύννεφου: Κυρίως Αίθριος 2500 ft
LGIR 251320Z 31015KT 9999 FEW025 29/22 Q1010 NOSIG

Script developed by  Saratoga-weather.org Προσαρμοσμένος για το πρότυπο του  Weerstation Leuven

Μπορείτε να βρείτε πληροφορίες καιρού μας και σε:

European Weather Network

WeatherCloud

Weather Underground

Δύκτιο Σταθμών Ελλάδας

AWEKAS

HAMweather, WeatherForYou, PWS Weather

MeteoPatras.Eu